sensor_id;sensor_type;location;lat;lon;timestamp;P1;durP1;ratioP1;P2;durP2;ratioP2
6015;SDS011;3036;49.960;8.454;2023-10-19T00:01:54;5.60;;;5.00;;
6015;SDS011;3036;49.960;8.454;2023-10-19T00:04:23;10.53;;;5.20;;
6015;SDS011;3036;49.960;8.454;2023-10-19T00:06:49;6.17;;;5.57;;
6015;SDS011;3036;49.960;8.454;2023-10-19T00:09:16;5.87;;;5.37;;
6015;SDS011;3036;49.960;8.454;2023-10-19T00:11:42;6.17;;;5.60;;
6015;SDS011;3036;49.960;8.454;2023-10-19T00:14:10;6.90;;;5.37;;
6015;SDS011;3036;49.960;8.454;2023-10-19T00:16:41;6.23;;;5.63;;
6015;SDS011;3036;49.960;8.454;2023-10-19T00:19:09;6.70;;;5.67;;
6015;SDS011;3036;49.960;8.454;2023-10-19T00:21:36;5.80;;;5.23;;
6015;SDS011;3036;49.960;8.454;2023-10-19T00:24:15;6.23;;;5.73;;
6015;SDS011;3036;49.960;8.454;2023-10-19T00:26:42;5.80;;;4.97;;
6015;SDS011;3036;49.960;8.454;2023-10-19T00:29:11;6.90;;;5.67;;
6015;SDS011;3036;49.960;8.454;2023-10-19T00:31:55;5.83;;;5.23;;
6015;SDS011;3036;49.960;8.454;2023-10-19T00:34:23;6.97;;;5.70;;
6015;SDS011;3036;49.960;8.454;2023-10-19T00:36:50;7.30;;;6.30;;
6015;SDS011;3036;49.960;8.454;2023-10-19T00:39:17;7.53;;;5.80;;
6015;SDS011;3036;49.960;8.454;2023-10-19T00:41:47;6.17;;;5.57;;
6015;SDS011;3036;49.960;8.454;2023-10-19T00:44:16;6.43;;;5.83;;
6015;SDS011;3036;49.960;8.454;2023-10-19T00:46:47;8.13;;;6.10;;
6015;SDS011;3036;49.960;8.454;2023-10-19T00:49:25;6.93;;;5.87;;
6015;SDS011;3036;49.960;8.454;2023-10-19T00:51:55;6.33;;;5.80;;
6015;SDS011;3036;49.960;8.454;2023-10-19T00:54:27;6.90;;;5.83;;
6015;SDS011;3036;49.960;8.454;2023-10-19T00:56:58;8.13;;;6.60;;
6015;SDS011;3036;49.960;8.454;2023-10-19T00:59:31;7.87;;;6.60;;
6015;SDS011;3036;49.960;8.454;2023-10-19T01:02:00;7.13;;;6.33;;
6015;SDS011;3036;49.960;8.454;2023-10-19T01:04:42;6.57;;;5.80;;
6015;SDS011;3036;49.960;8.454;2023-10-19T01:07:11;8.13;;;6.43;;
6015;SDS011;3036;49.960;8.454;2023-10-19T01:09:41;6.90;;;6.20;;
6015;SDS011;3036;49.960;8.454;2023-10-19T01:12:09;7.20;;;6.50;;
6015;SDS011;3036;49.960;8.454;2023-10-19T01:15:05;7.60;;;6.03;;
6015;SDS011;3036;49.960;8.454;2023-10-19T01:17:32;10.20;;;6.27;;
6015;SDS011;3036;49.960;8.454;2023-10-19T01:20:03;7.27;;;6.53;;
6015;SDS011;3036;49.960;8.454;2023-10-19T01:22:44;7.33;;;6.60;;
6015;SDS011;3036;49.960;8.454;2023-10-19T01:25:11;8.03;;;6.93;;
6015;SDS011;3036;49.960;8.454;2023-10-19T01:27:42;7.73;;;6.77;;
6015;SDS011;3036;49.960;8.454;2023-10-19T01:30:10;6.37;;;5.83;;
6015;SDS011;3036;49.960;8.454;2023-10-19T01:32:39;7.90;;;6.53;;
6015;SDS011;3036;49.960;8.454;2023-10-19T01:35:07;7.30;;;6.30;;
6015;SDS011;3036;49.960;8.454;2023-10-19T01:37:36;8.07;;;6.07;;
6015;SDS011;3036;49.960;8.454;2023-10-19T01:40:05;8.50;;;6.67;;
6015;SDS011;3036;49.960;8.454;2023-10-19T01:42:33;7.70;;;6.90;;
6015;SDS011;3036;49.960;8.454;2023-10-19T01:44:59;8.30;;;6.83;;
6015;SDS011;3036;49.960;8.454;2023-10-19T01:47:26;8.77;;;6.73;;
6015;SDS011;3036;49.960;8.454;2023-10-19T01:49:53;7.73;;;6.77;;
6015;SDS011;3036;49.960;8.454;2023-10-19T01:52:20;9.80;;;7.37;;
6015;SDS011;3036;49.960;8.454;2023-10-19T01:54:49;8.23;;;6.80;;
6015;SDS011;3036;49.960;8.454;2023-10-19T01:57:25;8.00;;;6.70;;
6015;SDS011;3036;49.960;8.454;2023-10-19T01:59:51;9.00;;;6.77;;
6015;SDS011;3036;49.960;8.454;2023-10-19T02:02:18;11.27;;;7.60;;
6015;SDS011;3036;49.960;8.454;2023-10-19T02:04:46;8.93;;;7.40;;
6015;SDS011;3036;49.960;8.454;2023-10-19T02:07:16;11.93;;;7.10;;
6015;SDS011;3036;49.960;8.454;2023-10-19T02:09:43;9.00;;;7.37;;
6015;SDS011;3036;49.960;8.454;2023-10-19T02:12:10;13.37;;;8.53;;
6015;SDS011;3036;49.960;8.454;2023-10-19T02:14:38;16.10;;;10.33;;
6015;SDS011;3036;49.960;8.454;2023-10-19T02:17:05;19.87;;;11.07;;
6015;SDS011;3036;49.960;8.454;2023-10-19T02:19:31;15.30;;;11.23;;
6015;SDS011;3036;49.960;8.454;2023-10-19T02:21:59;17.03;;;10.93;;
6015;SDS011;3036;49.960;8.454;2023-10-19T02:24:28;16.53;;;11.67;;
6015;SDS011;3036;49.960;8.454;2023-10-19T02:26:56;15.73;;;11.57;;
6015;SDS011;3036;49.960;8.454;2023-10-19T02:29:22;20.47;;;13.70;;
6015;SDS011;3036;49.960;8.454;2023-10-19T02:31:52;20.83;;;13.73;;
6015;SDS011;3036;49.960;8.454;2023-10-19T02:34:19;18.90;;;12.60;;
6015;SDS011;3036;49.960;8.454;2023-10-19T02:36:48;18.17;;;13.20;;
6015;SDS011;3036;49.960;8.454;2023-10-19T02:39:14;21.57;;;14.50;;
6015;SDS011;3036;49.960;8.454;2023-10-19T02:41:43;21.37;;;13.70;;
6015;SDS011;3036;49.960;8.454;2023-10-19T02:44:10;23.03;;;13.97;;
6015;SDS011;3036;49.960;8.454;2023-10-19T02:46:44;20.10;;;13.93;;
6015;SDS011;3036;49.960;8.454;2023-10-19T02:49:12;22.83;;;15.50;;
6015;SDS011;3036;49.960;8.454;2023-10-19T02:51:43;20.63;;;13.57;;
6015;SDS011;3036;49.960;8.454;2023-10-19T02:54:10;21.30;;;14.40;;
6015;SDS011;3036;49.960;8.454;2023-10-19T02:56:44;23.17;;;14.73;;
6015;SDS011;3036;49.960;8.454;2023-10-19T02:59:12;21.20;;;13.13;;
6015;SDS011;3036;49.960;8.454;2023-10-19T03:01:41;24.70;;;14.40;;
6015;SDS011;3036;49.960;8.454;2023-10-19T03:04:09;21.63;;;15.20;;
6015;SDS011;3036;49.960;8.454;2023-10-19T03:06:39;21.37;;;13.77;;
6015;SDS011;3036;49.960;8.454;2023-10-19T03:09:06;21.50;;;13.90;;
6015;SDS011;3036;49.960;8.454;2023-10-19T03:11:39;20.20;;;14.37;;
6015;SDS011;3036;49.960;8.454;2023-10-19T03:14:06;39.53;;;19.03;;
6015;SDS011;3036;49.960;8.454;2023-10-19T03:16:33;26.90;;;16.03;;
6015;SDS011;3036;49.960;8.454;2023-10-19T03:19:00;28.93;;;16.73;;
6015;SDS011;3036;49.960;8.454;2023-10-19T03:21:27;30.27;;;18.43;;
6015;SDS011;3036;49.960;8.454;2023-10-19T03:23:54;24.90;;;14.97;;
6015;SDS011;3036;49.960;8.454;2023-10-19T03:26:21;23.63;;;14.63;;
6015;SDS011;3036;49.960;8.454;2023-10-19T03:28:53;18.53;;;13.77;;
6015;SDS011;3036;49.960;8.454;2023-10-19T03:31:21;20.53;;;13.47;;
6015;SDS011;3036;49.960;8.454;2023-10-19T03:33:48;20.10;;;13.03;;
6015;SDS011;3036;49.960;8.454;2023-10-19T03:36:19;20.27;;;12.70;;
6015;SDS011;3036;49.960;8.454;2023-10-19T03:38:46;17.57;;;12.80;;
6015;SDS011;3036;49.960;8.454;2023-10-19T03:41:16;20.77;;;12.87;;
6015;SDS011;3036;49.960;8.454;2023-10-19T03:43:46;15.53;;;11.67;;
6015;SDS011;3036;49.960;8.454;2023-10-19T03:46:13;17.70;;;12.17;;
6015;SDS011;3036;49.960;8.454;2023-10-19T03:48:47;17.57;;;11.97;;
6015;SDS011;3036;49.960;8.454;2023-10-19T03:51:14;20.03;;;13.03;;
6015;SDS011;3036;49.960;8.454;2023-10-19T03:53:42;20.67;;;12.80;;
6015;SDS011;3036;49.960;8.454;2023-10-19T03:56:21;20.10;;;13.37;;
6015;SDS011;3036;49.960;8.454;2023-10-19T03:58:49;15.57;;;11.63;;
6015;SDS011;3036;49.960;8.454;2023-10-19T04:01:16;20.57;;;13.37;;
6015;SDS011;3036;49.960;8.454;2023-10-19T04:03:44;18.00;;;13.20;;
6015;SDS011;3036;49.960;8.454;2023-10-19T04:06:11;21.67;;;13.50;;
6015;SDS011;3036;49.960;8.454;2023-10-19T04:08:39;20.07;;;13.80;;
6015;SDS011;3036;49.960;8.454;2023-10-19T04:11:07;19.20;;;14.20;;
6015;SDS011;3036;49.960;8.454;2023-10-19T04:13:38;19.70;;;13.97;;
6015;SDS011;3036;49.960;8.454;2023-10-19T04:16:05;22.73;;;14.40;;
6015;SDS011;3036;49.960;8.454;2023-10-19T04:18:35;20.10;;;14.60;;
6015;SDS011;3036;49.960;8.454;2023-10-19T04:21:09;22.17;;;14.43;;
6015;SDS011;3036;49.960;8.454;2023-10-19T04:23:36;22.30;;;14.83;;
6015;SDS011;3036;49.960;8.454;2023-10-19T04:26:03;19.33;;;14.03;;
6015;SDS011;3036;49.960;8.454;2023-10-19T04:28:35;22.87;;;15.10;;
6015;SDS011;3036;49.960;8.454;2023-10-19T04:31:10;25.73;;;16.17;;
6015;SDS011;3036;49.960;8.454;2023-10-19T04:33:40;24.70;;;15.90;;
6015;SDS011;3036;49.960;8.454;2023-10-19T04:36:11;24.53;;;15.43;;
6015;SDS011;3036;49.960;8.454;2023-10-19T04:38:39;25.07;;;16.23;;
6015;SDS011;3036;49.960;8.454;2023-10-19T04:41:06;23.60;;;15.77;;
6015;SDS011;3036;49.960;8.454;2023-10-19T04:43:34;26.37;;;15.33;;
6015;SDS011;3036;49.960;8.454;2023-10-19T04:46:04;27.17;;;15.37;;
6015;SDS011;3036;49.960;8.454;2023-10-19T04:48:35;24.43;;;16.10;;
6015;SDS011;3036;49.960;8.454;2023-10-19T04:51:02;23.53;;;15.67;;
6015;SDS011;3036;49.960;8.454;2023-10-19T04:53:30;24.77;;;14.93;;
6015;SDS011;3036;49.960;8.454;2023-10-19T04:55:58;24.50;;;14.80;;
6015;SDS011;3036;49.960;8.454;2023-10-19T04:58:25;23.60;;;14.90;;
6015;SDS011;3036;49.960;8.454;2023-10-19T05:00:53;24.10;;;14.43;;
6015;SDS011;3036;49.960;8.454;2023-10-19T05:03:20;22.10;;;14.80;;
6015;SDS011;3036;49.960;8.454;2023-10-19T05:05:48;28.93;;;15.77;;
6015;SDS011;3036;49.960;8.454;2023-10-19T05:08:16;29.77;;;15.03;;
6015;SDS011;3036;49.960;8.454;2023-10-19T05:10:43;21.97;;;13.93;;
6015;SDS011;3036;49.960;8.454;2023-10-19T05:13:10;23.53;;;15.10;;
6015;SDS011;3036;49.960;8.454;2023-10-19T05:15:37;24.10;;;14.87;;
6015;SDS011;3036;49.960;8.454;2023-10-19T05:18:04;27.07;;;15.17;;
6015;SDS011;3036;49.960;8.454;2023-10-19T05:20:31;24.60;;;15.13;;
6015;SDS011;3036;49.960;8.454;2023-10-19T05:23:00;24.17;;;14.73;;
6015;SDS011;3036;49.960;8.454;2023-10-19T05:25:29;24.90;;;15.13;;
6015;SDS011;3036;49.960;8.454;2023-10-19T05:27:56;23.67;;;14.87;;
6015;SDS011;3036;49.960;8.454;2023-10-19T05:30:24;29.10;;;15.63;;
6015;SDS011;3036;49.960;8.454;2023-10-19T05:32:51;26.87;;;15.33;;
6015;SDS011;3036;49.960;8.454;2023-10-19T05:35:18;29.00;;;15.77;;
6015;SDS011;3036;49.960;8.454;2023-10-19T05:37:51;27.27;;;15.70;;
6015;SDS011;3036;49.960;8.454;2023-10-19T05:40:19;28.13;;;16.40;;
6015;SDS011;3036;49.960;8.454;2023-10-19T05:42:48;28.50;;;16.33;;
6015;SDS011;3036;49.960;8.454;2023-10-19T05:45:15;26.73;;;15.83;;
6015;SDS011;3036;49.960;8.454;2023-10-19T05:47:43;26.30;;;15.97;;
6015;SDS011;3036;49.960;8.454;2023-10-19T05:50:10;27.27;;;15.70;;
6015;SDS011;3036;49.960;8.454;2023-10-19T05:52:39;27.97;;;16.30;;
6015;SDS011;3036;49.960;8.454;2023-10-19T05:55:07;28.03;;;15.73;;
6015;SDS011;3036;49.960;8.454;2023-10-19T05:57:36;33.60;;;17.13;;
6015;SDS011;3036;49.960;8.454;2023-10-19T06:00:06;32.83;;;16.50;;
6015;SDS011;3036;49.960;8.454;2023-10-19T06:02:33;29.77;;;16.60;;
6015;SDS011;3036;49.960;8.454;2023-10-19T06:05:00;33.10;;;17.03;;
6015;SDS011;3036;49.960;8.454;2023-10-19T06:07:29;32.00;;;17.00;;
6015;SDS011;3036;49.960;8.454;2023-10-19T06:09:57;37.87;;;17.70;;
6015;SDS011;3036;49.960;8.454;2023-10-19T06:12:28;30.00;;;16.50;;
6015;SDS011;3036;49.960;8.454;2023-10-19T06:14:57;32.43;;;17.50;;
6015;SDS011;3036;49.960;8.454;2023-10-19T06:17:25;32.90;;;17.50;;
6015;SDS011;3036;49.960;8.454;2023-10-19T06:19:53;29.37;;;17.47;;
6015;SDS011;3036;49.960;8.454;2023-10-19T06:22:20;29.60;;;17.10;;
6015;SDS011;3036;49.960;8.454;2023-10-19T06:24:47;32.73;;;17.83;;
6015;SDS011;3036;49.960;8.454;2023-10-19T06:27:14;37.73;;;17.63;;
6015;SDS011;3036;49.960;8.454;2023-10-19T06:29:41;35.73;;;17.00;;
6015;SDS011;3036;49.960;8.454;2023-10-19T06:32:10;35.63;;;18.20;;
6015;SDS011;3036;49.960;8.454;2023-10-19T06:34:38;32.40;;;17.53;;
6015;SDS011;3036;49.960;8.454;2023-10-19T06:37:06;31.33;;;18.27;;
6015;SDS011;3036;49.960;8.454;2023-10-19T06:39:35;32.40;;;17.47;;
6015;SDS011;3036;49.960;8.454;2023-10-19T06:42:08;31.83;;;17.50;;
6015;SDS011;3036;49.960;8.454;2023-10-19T06:44:39;34.30;;;18.47;;
6015;SDS011;3036;49.960;8.454;2023-10-19T06:47:06;35.80;;;18.53;;
6015;SDS011;3036;49.960;8.454;2023-10-19T06:49:35;32.70;;;17.63;;
6015;SDS011;3036;49.960;8.454;2023-10-19T06:52:02;32.97;;;18.27;;
6015;SDS011;3036;49.960;8.454;2023-10-19T06:54:30;31.93;;;17.03;;
6015;SDS011;3036;49.960;8.454;2023-10-19T06:56:58;37.10;;;18.30;;
6015;SDS011;3036;49.960;8.454;2023-10-19T06:59:27;32.00;;;17.83;;
6015;SDS011;3036;49.960;8.454;2023-10-19T07:01:58;42.70;;;18.47;;
6015;SDS011;3036;49.960;8.454;2023-10-19T07:04:26;37.60;;;19.07;;
6015;SDS011;3036;49.960;8.454;2023-10-19T07:06:55;32.95;;;18.00;;
6015;SDS011;3036;49.960;8.454;2023-10-19T07:09:22;39.25;;;18.38;;
6015;SDS011;3036;49.960;8.454;2023-10-19T07:11:49;33.53;;;18.87;;
6015;SDS011;3036;49.960;8.454;2023-10-19T07:14:18;35.90;;;18.87;;
6015;SDS011;3036;49.960;8.454;2023-10-19T07:16:47;39.23;;;19.03;;
6015;SDS011;3036;49.960;8.454;2023-10-19T07:19:14;38.40;;;19.25;;
6015;SDS011;3036;49.960;8.454;2023-10-19T07:21:41;37.13;;;19.17;;
6015;SDS011;3036;49.960;8.454;2023-10-19T07:24:14;32.57;;;18.20;;
6015;SDS011;3036;49.960;8.454;2023-10-19T07:26:44;32.23;;;17.63;;
6015;SDS011;3036;49.960;8.454;2023-10-19T07:29:27;40.55;;;18.38;;
6015;SDS011;3036;49.960;8.454;2023-10-19T07:31:55;38.93;;;19.50;;
6015;SDS011;3036;49.960;8.454;2023-10-19T07:34:23;37.63;;;18.77;;
6015;SDS011;3036;49.960;8.454;2023-10-19T07:36:53;35.08;;;18.75;;
6015;SDS011;3036;49.960;8.454;2023-10-19T07:39:21;37.33;;;19.40;;
6015;SDS011;3036;49.960;8.454;2023-10-19T07:41:48;38.75;;;18.92;;
6015;SDS011;3036;49.960;8.454;2023-10-19T07:44:16;42.53;;;19.25;;
6015;SDS011;3036;49.960;8.454;2023-10-19T07:46:43;35.75;;;18.98;;
6015;SDS011;3036;49.960;8.454;2023-10-19T07:49:10;36.30;;;18.77;;
6015;SDS011;3036;49.960;8.454;2023-10-19T07:51:39;36.88;;;18.85;;
6015;SDS011;3036;49.960;8.454;2023-10-19T07:54:06;34.40;;;18.55;;
6015;SDS011;3036;49.960;8.454;2023-10-19T07:56:36;29.73;;;16.13;;
6015;SDS011;3036;49.960;8.454;2023-10-19T07:59:04;36.57;;;18.43;;
6015;SDS011;3036;49.960;8.454;2023-10-19T08:01:32;30.40;;;17.70;;
6015;SDS011;3036;49.960;8.454;2023-10-19T08:03:59;31.13;;;18.25;;
6015;SDS011;3036;49.960;8.454;2023-10-19T08:06:26;30.77;;;17.75;;
6015;SDS011;3036;49.960;8.454;2023-10-19T08:08:53;35.67;;;18.20;;
6015;SDS011;3036;49.960;8.454;2023-10-19T08:11:20;30.58;;;17.45;;
6015;SDS011;3036;49.960;8.454;2023-10-19T08:13:49;28.13;;;17.23;;
6015;SDS011;3036;49.960;8.454;2023-10-19T08:16:16;25.88;;;16.70;;
6015;SDS011;3036;49.960;8.454;2023-10-19T08:18:43;28.10;;;16.88;;
6015;SDS011;3036;49.960;8.454;2023-10-19T08:21:10;26.25;;;16.27;;
6015;SDS011;3036;49.960;8.454;2023-10-19T08:23:37;27.67;;;17.88;;
6015;SDS011;3036;49.960;8.454;2023-10-19T08:26:05;25.57;;;16.90;;
6015;SDS011;3036;49.960;8.454;2023-10-19T08:28:33;29.58;;;17.73;;
6015;SDS011;3036;49.960;8.454;2023-10-19T08:31:02;28.75;;;17.30;;
6015;SDS011;3036;49.960;8.454;2023-10-19T08:33:30;24.88;;;16.90;;
6015;SDS011;3036;49.960;8.454;2023-10-19T08:35:58;25.02;;;15.90;;
6015;SDS011;3036;49.960;8.454;2023-10-19T08:38:26;25.90;;;16.85;;
6015;SDS011;3036;49.960;8.454;2023-10-19T08:40:53;27.25;;;17.27;;
6015;SDS011;3036;49.960;8.454;2023-10-19T08:43:20;23.98;;;16.25;;
6015;SDS011;3036;49.960;8.454;2023-10-19T08:45:47;29.57;;;16.30;;
6015;SDS011;3036;49.960;8.454;2023-10-19T08:48:16;22.77;;;15.82;;
6015;SDS011;3036;49.960;8.454;2023-10-19T08:50:43;23.73;;;15.90;;
6015;SDS011;3036;49.960;8.454;2023-10-19T08:53:11;24.80;;;16.25;;
6015;SDS011;3036;49.960;8.454;2023-10-19T08:55:39;24.77;;;16.33;;
6015;SDS011;3036;49.960;8.454;2023-10-19T08:58:07;22.27;;;15.73;;
6015;SDS011;3036;49.960;8.454;2023-10-19T09:00:44;23.08;;;15.80;;
6015;SDS011;3036;49.960;8.454;2023-10-19T09:03:13;23.50;;;16.98;;
6015;SDS011;3036;49.960;8.454;2023-10-19T09:05:43;23.65;;;16.65;;
6015;SDS011;3036;49.960;8.454;2023-10-19T09:08:15;23.85;;;16.42;;
6015;SDS011;3036;49.960;8.454;2023-10-19T09:10:42;25.02;;;16.85;;
6015;SDS011;3036;49.960;8.454;2023-10-19T09:13:11;24.60;;;16.38;;
6015;SDS011;3036;49.960;8.454;2023-10-19T09:15:40;24.55;;;16.30;;
6015;SDS011;3036;49.960;8.454;2023-10-19T09:18:14;24.25;;;17.25;;
6015;SDS011;3036;49.960;8.454;2023-10-19T09:20:43;26.17;;;17.08;;
6015;SDS011;3036;49.960;8.454;2023-10-19T09:23:18;25.38;;;16.42;;
6015;SDS011;3036;49.960;8.454;2023-10-19T09:25:45;26.90;;;16.05;;
6015;SDS011;3036;49.960;8.454;2023-10-19T09:28:12;29.80;;;18.25;;
6015;SDS011;3036;49.960;8.454;2023-10-19T09:30:40;24.52;;;16.17;;
6015;SDS011;3036;49.960;8.454;2023-10-19T09:33:08;29.27;;;18.65;;
6015;SDS011;3036;49.960;8.454;2023-10-19T09:35:35;25.35;;;16.77;;
6015;SDS011;3036;49.960;8.454;2023-10-19T09:38:05;24.63;;;17.40;;
6015;SDS011;3036;49.960;8.454;2023-10-19T09:40:32;24.88;;;17.75;;
6015;SDS011;3036;49.960;8.454;2023-10-19T09:42:59;24.48;;;17.17;;
6015;SDS011;3036;49.960;8.454;2023-10-19T09:45:30;26.50;;;16.65;;
6015;SDS011;3036;49.960;8.454;2023-10-19T09:48:00;24.58;;;16.67;;
6015;SDS011;3036;49.960;8.454;2023-10-19T09:50:28;25.20;;;18.73;;
6015;SDS011;3036;49.960;8.454;2023-10-19T09:52:55;28.52;;;18.27;;
6015;SDS011;3036;49.960;8.454;2023-10-19T09:55:24;23.80;;;17.00;;
6015;SDS011;3036;49.960;8.454;2023-10-19T09:57:55;18.17;;;14.45;;
6015;SDS011;3036;49.960;8.454;2023-10-19T10:00:23;18.38;;;14.68;;
6015;SDS011;3036;49.960;8.454;2023-10-19T10:02:50;17.17;;;13.13;;
6015;SDS011;3036;49.960;8.454;2023-10-19T10:10:50;16.33;;;12.98;;
6015;SDS011;3036;49.960;8.454;2023-10-19T10:15:59;18.17;;;12.85;;
6015;SDS011;3036;49.960;8.454;2023-10-19T10:18:30;17.23;;;12.68;;
6015;SDS011;3036;49.960;8.454;2023-10-19T10:21:04;19.20;;;12.15;;
6015;SDS011;3036;49.960;8.454;2023-10-19T10:23:37;19.23;;;12.38;;
6015;SDS011;3036;49.960;8.454;2023-10-19T10:26:08;14.85;;;12.15;;
6015;SDS011;3036;49.960;8.454;2023-10-19T10:28:35;13.40;;;11.93;;
6015;SDS011;3036;49.960;8.454;2023-10-19T10:31:07;11.10;;;9.77;;
6015;SDS011;3036;49.960;8.454;2023-10-19T10:33:37;12.60;;;9.65;;
6015;SDS011;3036;49.960;8.454;2023-10-19T10:36:04;15.18;;;10.15;;
6015;SDS011;3036;49.960;8.454;2023-10-19T10:38:33;11.93;;;9.32;;
6015;SDS011;3036;49.960;8.454;2023-10-19T10:41:00;13.38;;;9.68;;
6015;SDS011;3036;49.960;8.454;2023-10-19T10:43:29;10.88;;;8.73;;
6015;SDS011;3036;49.960;8.454;2023-10-19T10:46:02;12.80;;;8.95;;
6015;SDS011;3036;49.960;8.454;2023-10-19T10:48:29;14.05;;;8.98;;
6015;SDS011;3036;49.960;8.454;2023-10-19T10:50:57;11.43;;;8.27;;
6015;SDS011;3036;49.960;8.454;2023-10-19T10:53:24;12.35;;;7.93;;
6015;SDS011;3036;49.960;8.454;2023-10-19T10:55:51;8.43;;;7.53;;
6015;SDS011;3036;49.960;8.454;2023-10-19T10:58:19;11.75;;;7.47;;
6015;SDS011;3036;49.960;8.454;2023-10-19T11:00:48;10.00;;;8.05;;
6015;SDS011;3036;49.960;8.454;2023-10-19T11:03:16;9.95;;;7.80;;
6015;SDS011;3036;49.960;8.454;2023-10-19T11:05:43;11.75;;;8.07;;
6015;SDS011;3036;49.960;8.454;2023-10-19T11:08:12;12.02;;;8.48;;
6015;SDS011;3036;49.960;8.454;2023-10-19T11:10:39;10.02;;;8.60;;
6015;SDS011;3036;49.960;8.454;2023-10-19T11:13:08;8.88;;;8.05;;
6015;SDS011;3036;49.960;8.454;2023-10-19T11:15:35;9.25;;;8.00;;
6015;SDS011;3036;49.960;8.454;2023-10-19T11:18:05;8.50;;;7.53;;
6015;SDS011;3036;49.960;8.454;2023-10-19T11:20:32;8.60;;;7.70;;
6015;SDS011;3036;49.960;8.454;2023-10-19T11:23:00;10.15;;;7.95;;
6015;SDS011;3036;49.960;8.454;2023-10-19T11:25:28;10.23;;;8.20;;
6015;SDS011;3036;49.960;8.454;2023-10-19T11:27:55;9.50;;;7.55;;
6015;SDS011;3036;49.960;8.454;2023-10-19T11:30:23;9.80;;;8.48;;
6015;SDS011;3036;49.960;8.454;2023-10-19T11:32:50;9.93;;;7.90;;
6015;SDS011;3036;49.960;8.454;2023-10-19T11:35:23;10.55;;;8.18;;
6015;SDS011;3036;49.960;8.454;2023-10-19T11:37:50;11.98;;;7.90;;
6015;SDS011;3036;49.960;8.454;2023-10-19T11:40:18;12.15;;;7.80;;
6015;SDS011;3036;49.960;8.454;2023-10-19T11:42:45;8.60;;;7.68;;
6015;SDS011;3036;49.960;8.454;2023-10-19T11:45:13;11.75;;;9.02;;
6015;SDS011;3036;49.960;8.454;2023-10-19T11:47:41;9.05;;;7.93;;
6015;SDS011;3036;49.960;8.454;2023-10-19T11:50:08;9.48;;;8.52;;
6015;SDS011;3036;49.960;8.454;2023-10-19T11:52:38;13.80;;;8.45;;
6015;SDS011;3036;49.960;8.454;2023-10-19T11:55:06;9.82;;;8.85;;
6015;SDS011;3036;49.960;8.454;2023-10-19T11:57:34;10.35;;;8.48;;
6015;SDS011;3036;49.960;8.454;2023-10-19T12:00:01;11.15;;;8.80;;
6015;SDS011;3036;49.960;8.454;2023-10-19T12:02:33;10.25;;;8.93;;
6015;SDS011;3036;49.960;8.454;2023-10-19T12:05:01;9.52;;;7.88;;
6015;SDS011;3036;49.960;8.454;2023-10-19T12:07:29;12.52;;;8.57;;
6015;SDS011;3036;49.960;8.454;2023-10-19T12:09:59;11.75;;;8.63;;
6015;SDS011;3036;49.960;8.454;2023-10-19T12:12:28;10.85;;;8.50;;
6015;SDS011;3036;49.960;8.454;2023-10-19T12:14:56;10.70;;;9.15;;
6015;SDS011;3036;49.960;8.454;2023-10-19T12:17:24;9.25;;;8.35;;
6015;SDS011;3036;49.960;8.454;2023-10-19T12:19:52;9.73;;;8.73;;
6015;SDS011;3036;49.960;8.454;2023-10-19T12:22:20;12.40;;;9.15;;
6015;SDS011;3036;49.960;8.454;2023-10-19T12:24:49;13.07;;;8.55;;
6015;SDS011;3036;49.960;8.454;2023-10-19T12:27:18;9.70;;;8.32;;
6015;SDS011;3036;49.960;8.454;2023-10-19T12:29:45;12.45;;;8.23;;
6015;SDS011;3036;49.960;8.454;2023-10-19T12:32:12;12.57;;;7.70;;
6015;SDS011;3036;49.960;8.454;2023-10-19T12:34:40;9.98;;;7.35;;
6015;SDS011;3036;49.960;8.454;2023-10-19T12:37:07;8.63;;;7.82;;
6015;SDS011;3036;49.960;8.454;2023-10-19T12:39:36;13.20;;;8.52;;
6015;SDS011;3036;49.960;8.454;2023-10-19T12:42:08;10.18;;;8.15;;
6015;SDS011;3036;49.960;8.454;2023-10-19T12:44:36;10.10;;;7.82;;
6015;SDS011;3036;49.960;8.454;2023-10-19T12:47:08;9.55;;;8.02;;
6015;SDS011;3036;49.960;8.454;2023-10-19T12:49:37;8.93;;;7.95;;
6015;SDS011;3036;49.960;8.454;2023-10-19T12:52:05;10.77;;;8.13;;
6015;SDS011;3036;49.960;8.454;2023-10-19T12:54:33;14.13;;;9.48;;
6015;SDS011;3036;49.960;8.454;2023-10-19T12:57:00;13.35;;;9.60;;
6015;SDS011;3036;49.960;8.454;2023-10-19T12:59:28;10.93;;;9.07;;
6015;SDS011;3036;49.960;8.454;2023-10-19T13:01:57;12.55;;;8.75;;
6015;SDS011;3036;49.960;8.454;2023-10-19T13:04:28;15.90;;;9.38;;
6015;SDS011;3036;49.960;8.454;2023-10-19T13:06:56;18.67;;;11.55;;
6015;SDS011;3036;49.960;8.454;2023-10-19T13:09:23;14.90;;;10.95;;
6015;SDS011;3036;49.960;8.454;2023-10-19T13:11:56;12.60;;;10.13;;
6015;SDS011;3036;49.960;8.454;2023-10-19T13:14:23;15.38;;;9.63;;
6015;SDS011;3036;49.960;8.454;2023-10-19T13:16:51;14.35;;;9.77;;
6015;SDS011;3036;49.960;8.454;2023-10-19T13:19:20;12.20;;;9.02;;
6015;SDS011;3036;49.960;8.454;2023-10-19T13:21:50;15.75;;;10.63;;
6015;SDS011;3036;49.960;8.454;2023-10-19T13:24:17;17.45;;;10.85;;
6015;SDS011;3036;49.960;8.454;2023-10-19T13:26:46;14.45;;;11.10;;
6015;SDS011;3036;49.960;8.454;2023-10-19T13:29:13;13.77;;;10.20;;
6015;SDS011;3036;49.960;8.454;2023-10-19T13:31:42;14.40;;;10.65;;
6015;SDS011;3036;49.960;8.454;2023-10-19T13:34:14;12.65;;;10.05;;
6015;SDS011;3036;49.960;8.454;2023-10-19T13:36:42;16.98;;;10.70;;
6015;SDS011;3036;49.960;8.454;2023-10-19T13:39:11;14.32;;;10.57;;
6015;SDS011;3036;49.960;8.454;2023-10-19T13:41:41;12.93;;;10.73;;
6015;SDS011;3036;49.960;8.454;2023-10-19T13:44:08;62.10;;;19.98;;
6015;SDS011;3036;49.960;8.454;2023-10-19T13:46:36;14.70;;;11.43;;
6015;SDS011;3036;49.960;8.454;2023-10-19T13:49:03;14.60;;;10.85;;
6015;SDS011;3036;49.960;8.454;2023-10-19T13:51:31;13.65;;;11.07;;
6015;SDS011;3036;49.960;8.454;2023-10-19T13:53:59;14.30;;;10.50;;
6015;SDS011;3036;49.960;8.454;2023-10-19T13:56:26;10.98;;;9.88;;
6015;SDS011;3036;49.960;8.454;2023-10-19T13:58:53;15.43;;;9.40;;
6015;SDS011;3036;49.960;8.454;2023-10-19T14:01:20;12.25;;;9.23;;
6015;SDS011;3036;49.960;8.454;2023-10-19T14:03:50;14.65;;;9.23;;
6015;SDS011;3036;49.960;8.454;2023-10-19T14:06:20;11.50;;;9.88;;
6015;SDS011;3036;49.960;8.454;2023-10-19T14:08:49;12.38;;;9.52;;
6015;SDS011;3036;49.960;8.454;2023-10-19T14:11:17;13.02;;;9.13;;
6015;SDS011;3036;49.960;8.454;2023-10-19T14:13:45;9.45;;;8.43;;
6015;SDS011;3036;49.960;8.454;2023-10-19T14:16:12;9.20;;;8.27;;
6015;SDS011;3036;49.960;8.454;2023-10-19T14:18:39;8.98;;;8.02;;
6015;SDS011;3036;49.960;8.454;2023-10-19T14:21:11;10.13;;;8.13;;
6015;SDS011;3036;49.960;8.454;2023-10-19T14:23:39;10.43;;;7.70;;
6015;SDS011;3036;49.960;8.454;2023-10-19T14:26:06;10.57;;;7.97;;
6015;SDS011;3036;49.960;8.454;2023-10-19T14:28:35;10.60;;;8.30;;
6015;SDS011;3036;49.960;8.454;2023-10-19T14:31:02;14.48;;;8.52;;
6015;SDS011;3036;49.960;8.454;2023-10-19T14:33:32;8.55;;;7.57;;
6015;SDS011;3036;49.960;8.454;2023-10-19T14:36:00;8.70;;;7.60;;
6015;SDS011;3036;49.960;8.454;2023-10-19T14:38:27;18.13;;;10.73;;
6015;SDS011;3036;49.960;8.454;2023-10-19T14:40:54;10.07;;;8.23;;
6015;SDS011;3036;49.960;8.454;2023-10-19T14:43:22;11.98;;;8.73;;
6015;SDS011;3036;49.960;8.454;2023-10-19T14:45:52;12.63;;;8.48;;
6015;SDS011;3036;49.960;8.454;2023-10-19T14:48:19;12.32;;;8.55;;
6015;SDS011;3036;49.960;8.454;2023-10-19T14:50:46;15.35;;;8.27;;
6015;SDS011;3036;49.960;8.454;2023-10-19T14:53:15;11.88;;;8.05;;
6015;SDS011;3036;49.960;8.454;2023-10-19T14:55:43;11.07;;;8.27;;
6015;SDS011;3036;49.960;8.454;2023-10-19T14:58:11;8.55;;;7.75;;
6015;SDS011;3036;49.960;8.454;2023-10-19T15:00:38;8.70;;;7.38;;
6015;SDS011;3036;49.960;8.454;2023-10-19T15:03:10;13.40;;;9.45;;
6015;SDS011;3036;49.960;8.454;2023-10-19T15:05:39;20.02;;;13.30;;
6015;SDS011;3036;49.960;8.454;2023-10-19T15:08:08;21.30;;;13.32;;
6015;SDS011;3036;49.960;8.454;2023-10-19T15:10:35;9.70;;;8.35;;
6015;SDS011;3036;49.960;8.454;2023-10-19T15:13:06;12.77;;;9.13;;